createdAt,value
2023-02-16T00:01:24.260Z,19.02
2023-02-16T00:03:52.538Z,16.55
2023-02-16T00:06:19.265Z,18.95
2023-02-16T00:08:47.781Z,16.63
2023-02-16T00:11:46.675Z,17.20
2023-02-16T00:14:14.320Z,17.15
2023-02-16T00:16:41.202Z,19.70
2023-02-16T00:19:34.785Z,17.52
2023-02-16T00:22:02.053Z,18.05
2023-02-16T00:24:29.887Z,16.13
2023-02-16T00:26:57.740Z,17.90
2023-02-16T00:29:28.616Z,16.98
2023-02-16T00:31:57.051Z,16.50
2023-02-16T00:34:33.097Z,15.00
2023-02-16T00:37:03.108Z,16.45
2023-02-16T00:39:30.003Z,15.90
2023-02-16T00:42:00.236Z,17.13
2023-02-16T00:44:48.441Z,17.90
2023-02-16T00:47:39.945Z,16.52
2023-02-16T00:50:19.872Z,17.83
2023-02-16T00:52:47.424Z,15.32
2023-02-16T00:55:16.652Z,16.95
2023-02-16T00:57:57.106Z,14.85
2023-02-16T01:00:34.041Z,17.58
2023-02-16T01:03:02.830Z,16.70
2023-02-16T01:05:29.459Z,16.60
2023-02-16T01:08:14.833Z,16.25
2023-02-16T01:11:11.035Z,18.08
2023-02-16T01:13:45.290Z,16.42
2023-02-16T01:16:23.371Z,17.05
2023-02-16T01:18:50.673Z,17.10
2023-02-16T01:21:17.322Z,16.13
2023-02-16T01:23:44.299Z,14.98
2023-02-16T01:26:14.446Z,16.90
2023-02-16T01:28:41.185Z,17.92
2023-02-16T01:31:10.413Z,19.00
2023-02-16T01:33:37.049Z,17.13
2023-02-16T01:36:04.569Z,18.60
2023-02-16T01:38:31.095Z,15.88
2023-02-16T01:41:22.469Z,17.13
2023-02-16T01:44:01.492Z,16.85
2023-02-16T01:46:49.634Z,16.05
2023-02-16T01:49:18.328Z,18.25
2023-02-16T01:51:47.424Z,16.92
2023-02-16T01:54:29.362Z,14.80
2023-02-16T01:57:39.140Z,16.17
2023-02-16T02:00:34.405Z,17.42
2023-02-16T02:03:21.493Z,18.55
2023-02-16T02:05:50.213Z,17.35
2023-02-16T02:08:31.556Z,18.20
2023-02-16T02:11:20.425Z,19.33
2023-02-16T02:13:55.601Z,17.98
2023-02-16T02:16:25.159Z,17.30
2023-02-16T02:18:52.091Z,17.30
2023-02-16T02:22:08.538Z,19.35
2023-02-16T02:24:53.369Z,16.23
2023-02-16T02:27:26.700Z,16.35
2023-02-16T02:29:53.157Z,16.42
2023-02-16T02:32:25.628Z,18.20
2023-02-16T02:35:07.330Z,20.30
2023-02-16T02:37:44.371Z,19.92
2023-02-16T02:40:41.821Z,18.33
2023-02-16T02:43:16.186Z,19.83
2023-02-16T02:45:56.343Z,23.85
2023-02-16T02:48:23.149Z,20.20
2023-02-16T02:51:08.002Z,17.80
2023-02-16T02:53:39.056Z,21.70
2023-02-16T02:56:26.653Z,19.70
2023-02-16T02:59:16.541Z,19.65
2023-02-16T03:01:50.157Z,19.40
2023-02-16T03:04:21.364Z,20.13
2023-02-16T03:06:51.598Z,18.27
2023-02-16T03:09:19.046Z,19.35
2023-02-16T03:12:07.559Z,19.35
2023-02-16T03:14:39.196Z,18.15
2023-02-16T03:17:34.446Z,20.10
2023-02-16T03:20:23.829Z,22.05
2023-02-16T03:23:09.902Z,19.05
2023-02-16T03:25:57.980Z,22.02
2023-02-16T03:28:50.245Z,20.08
2023-02-16T03:31:25.184Z,20.45
2023-02-16T03:33:54.577Z,19.00
2023-02-16T03:36:26.847Z,19.70
2023-02-16T03:38:55.892Z,21.80
2023-02-16T03:41:23.485Z,20.67
2023-02-16T03:43:49.973Z,20.63
2023-02-16T03:46:16.674Z,19.48
2023-02-16T03:48:43.397Z,22.40
2023-02-16T03:51:09.923Z,17.67
2023-02-16T03:53:36.428Z,20.25
2023-02-16T03:56:02.960Z,18.40
2023-02-16T03:58:29.530Z,21.00
2023-02-16T04:00:56.769Z,20.10
2023-02-16T04:03:23.257Z,19.60
2023-02-16T04:05:49.820Z,23.10
2023-02-16T04:08:16.380Z,19.63
2023-02-16T04:10:43.567Z,22.20
2023-02-16T04:13:10.168Z,23.48
2023-02-16T04:15:36.732Z,21.48
2023-02-16T04:18:03.563Z,22.02
2023-02-16T04:20:32.654Z,21.08
2023-02-16T04:22:59.394Z,21.80
2023-02-16T04:25:26.820Z,19.67
2023-02-16T04:27:54.058Z,20.35
2023-02-16T04:30:23.509Z,18.02
2023-02-16T04:32:50.562Z,18.15
2023-02-16T04:35:17.884Z,21.85
2023-02-16T04:37:45.000Z,20.23
2023-02-16T04:40:16.216Z,19.88
2023-02-16T04:42:44.367Z,19.50
2023-02-16T04:45:11.540Z,18.30
2023-02-16T04:47:38.022Z,17.77
2023-02-16T04:50:05.070Z,17.25
2023-02-16T04:52:32.194Z,17.02
2023-02-16T04:54:58.747Z,19.77
2023-02-16T04:57:25.501Z,20.60
2023-02-16T04:59:52.022Z,18.92
2023-02-16T05:02:18.554Z,17.48
2023-02-16T05:04:45.136Z,18.33
2023-02-16T05:07:11.731Z,20.42
2023-02-16T05:09:38.279Z,18.17
2023-02-16T05:12:23.414Z,18.33
2023-02-16T05:14:50.157Z,19.23
2023-02-16T05:17:19.925Z,18.70
2023-02-16T05:19:49.469Z,18.38
2023-02-16T05:22:16.467Z,20.58
2023-02-16T05:24:43.530Z,20.10
2023-02-16T05:27:14.159Z,19.73
2023-02-16T05:29:40.798Z,18.88
2023-02-16T05:32:07.652Z,18.73
2023-02-16T05:34:34.316Z,20.33
2023-02-16T05:37:00.876Z,20.70
2023-02-16T05:39:28.203Z,20.25
2023-02-16T05:41:54.726Z,18.27
2023-02-16T05:44:21.234Z,20.40
2023-02-16T05:46:47.841Z,18.83
2023-02-16T05:49:15.786Z,19.27
2023-02-16T05:51:42.331Z,21.40
2023-02-16T05:54:10.689Z,19.70
2023-02-16T05:56:37.232Z,20.35
2023-02-16T05:59:03.787Z,20.58
2023-02-16T06:01:30.306Z,19.88
2023-02-16T06:03:56.915Z,20.58
2023-02-16T06:06:23.562Z,21.73
2023-02-16T06:08:50.119Z,20.05
2023-02-16T06:11:43.082Z,20.08
2023-02-16T06:14:15.340Z,22.17
2023-02-16T06:16:44.620Z,19.70
2023-02-16T06:19:12.152Z,20.00
2023-02-16T06:21:39.628Z,20.77
2023-02-16T06:24:08.147Z,20.25
2023-02-16T06:26:35.052Z,21.02
2023-02-16T06:29:01.598Z,21.05
2023-02-16T06:31:28.238Z,21.60
2023-02-16T06:33:56.753Z,20.92
2023-02-16T06:36:24.388Z,22.90
2023-02-16T06:38:51.454Z,22.65
2023-02-16T06:41:31.441Z,21.77
2023-02-16T06:43:59.762Z,24.25
2023-02-16T06:46:27.036Z,20.95
2023-02-16T06:48:53.655Z,21.70
2023-02-16T06:51:20.378Z,21.20
2023-02-16T06:53:47.580Z,20.20
2023-02-16T06:56:14.090Z,20.23
2023-02-16T06:58:40.759Z,21.08
2023-02-16T07:01:07.613Z,21.83
2023-02-16T07:03:35.407Z,22.15
2023-02-16T07:06:02.184Z,22.10
2023-02-16T07:08:29.040Z,20.13
2023-02-16T07:10:55.603Z,22.65
2023-02-16T07:13:22.449Z,23.63
2023-02-16T07:15:48.979Z,20.05
2023-02-16T07:18:15.549Z,22.25
2023-02-16T07:20:42.106Z,20.90
2023-02-16T07:23:08.629Z,21.77
2023-02-16T07:25:36.752Z,21.13
2023-02-16T07:28:03.630Z,22.50
2023-02-16T07:30:30.214Z,20.00
2023-02-16T07:32:56.782Z,23.35
2023-02-16T07:35:23.357Z,21.02
2023-02-16T07:37:49.950Z,20.38
2023-02-16T07:40:16.482Z,21.77
2023-02-16T07:42:43.020Z,20.95
2023-02-16T07:45:09.748Z,21.17
2023-02-16T07:47:36.609Z,20.73
2023-02-16T07:50:03.630Z,21.13
2023-02-16T07:52:31.359Z,24.73
2023-02-16T07:54:59.217Z,22.77
2023-02-16T07:57:27.195Z,26.25
2023-02-16T07:59:54.703Z,20.58
2023-02-16T08:02:22.747Z,22.13
2023-02-16T08:04:50.167Z,20.55
2023-02-16T08:07:18.073Z,23.17
2023-02-16T08:09:45.014Z,24.35
2023-02-16T08:12:14.395Z,20.58
2023-02-16T08:14:40.919Z,21.80
2023-02-16T08:17:08.230Z,22.85
2023-02-16T08:19:34.934Z,23.55
2023-02-16T08:22:02.510Z,23.17
2023-02-16T08:24:29.570Z,21.33
2023-02-16T08:26:56.688Z,22.13
2023-02-16T08:29:24.052Z,22.23
2023-02-16T08:31:51.064Z,23.05
2023-02-16T08:34:20.135Z,20.00
2023-02-16T08:36:53.048Z,23.45
2023-02-16T08:39:21.092Z,23.33
2023-02-16T08:41:50.017Z,21.13
2023-02-16T08:44:17.774Z,22.17
2023-02-16T08:46:46.511Z,21.35
2023-02-16T08:49:15.681Z,20.67
2023-02-16T08:51:44.459Z,18.90
2023-02-16T08:54:16.816Z,19.50
2023-02-16T08:56:46.975Z,21.80
2023-02-16T08:59:18.123Z,19.25
2023-02-16T09:01:44.948Z,20.02
2023-02-16T09:04:12.914Z,21.02
2023-02-16T09:06:42.097Z,21.73
2023-02-16T09:09:09.860Z,20.42
2023-02-16T09:11:37.084Z,19.50
2023-02-16T09:14:04.936Z,22.10
2023-02-16T09:16:38.497Z,22.52
2023-02-16T09:19:08.168Z,22.42
2023-02-16T09:21:35.021Z,21.30
2023-02-16T09:24:03.661Z,20.13
2023-02-16T09:26:38.480Z,20.05
2023-02-16T09:29:07.053Z,20.48
2023-02-16T09:31:37.184Z,18.88
2023-02-16T09:34:13.844Z,21.67
2023-02-16T09:36:40.415Z,19.63
2023-02-16T09:39:07.991Z,20.80
2023-02-16T09:41:53.401Z,21.98
2023-02-16T09:44:28.769Z,21.70
2023-02-16T09:46:58.668Z,21.63
2023-02-16T09:49:35.409Z,21.10
2023-02-16T09:52:16.218Z,18.60
2023-02-16T09:54:54.826Z,24.70
2023-02-16T09:57:47.293Z,19.42
2023-02-16T10:00:23.528Z,17.50
2023-02-16T10:03:13.684Z,21.73
2023-02-16T10:06:18.534Z,20.25
2023-02-16T10:08:54.830Z,20.58
2023-02-16T10:11:46.558Z,23.00
2023-02-16T10:14:33.518Z,20.30
2023-02-16T10:17:28.228Z,20.33
2023-02-16T10:20:21.430Z,20.25
2023-02-16T10:23:23.036Z,20.98
2023-02-16T10:25:56.474Z,21.35
2023-02-16T10:28:40.750Z,20.02
2023-02-16T10:31:31.246Z,21.98
2023-02-16T10:34:16.836Z,20.77
2023-02-16T10:36:46.360Z,22.02
2023-02-16T10:39:26.303Z,20.92
2023-02-16T10:42:09.856Z,21.45
2023-02-16T10:44:44.090Z,23.98
2023-02-16T10:47:35.731Z,24.98
2023-02-16T10:50:03.214Z,22.55
2023-02-16T10:52:34.392Z,26.65
2023-02-16T10:55:01.538Z,22.70
2023-02-16T10:57:31.592Z,24.92
2023-02-16T11:00:01.560Z,23.60
2023-02-16T11:02:35.266Z,21.45
2023-02-16T11:07:30.149Z,22.50
2023-02-16T11:10:00.839Z,19.23
2023-02-16T11:12:32.417Z,20.70
2023-02-16T11:15:06.792Z,21.90
2023-02-16T11:17:49.864Z,22.30
2023-02-16T11:20:53.196Z,22.90
2023-02-16T11:23:29.001Z,23.25
2023-02-16T11:25:58.648Z,24.20
2023-02-16T11:28:32.133Z,25.08
2023-02-16T11:31:25.367Z,25.20
2023-02-16T11:34:02.307Z,23.75
2023-02-16T11:36:37.571Z,23.45
2023-02-16T11:39:30.985Z,23.15
2023-02-16T11:42:06.101Z,24.00
2023-02-16T11:44:46.532Z,22.60
2023-02-16T11:47:25.201Z,22.35
2023-02-16T11:50:17.081Z,23.15
2023-02-16T11:52:43.612Z,22.88
2023-02-16T11:55:26.700Z,21.67
2023-02-16T11:57:54.187Z,24.83
2023-02-16T12:00:22.741Z,24.45
2023-02-16T12:03:08.331Z,25.90
2023-02-16T12:06:11.522Z,24.42
2023-02-16T12:08:59.740Z,25.77
2023-02-16T12:11:28.136Z,26.80
2023-02-16T12:14:17.748Z,28.30
2023-02-16T12:16:57.419Z,25.27
2023-02-16T12:19:38.338Z,24.48
2023-02-16T12:22:28.129Z,28.55
2023-02-16T12:25:19.946Z,24.02
2023-02-16T12:28:18.462Z,25.90
2023-02-16T12:31:09.337Z,28.35
2023-02-16T12:33:53.848Z,27.45
2023-02-16T12:36:23.889Z,26.02
2023-02-16T12:39:28.459Z,27.98
2023-02-16T12:44:46.256Z,28.35
2023-02-16T12:47:50.057Z,25.17
2023-02-16T12:50:29.196Z,26.67
2023-02-16T12:53:28.300Z,27.77
2023-02-16T12:56:07.664Z,20.58
2023-02-16T12:58:44.444Z,21.90
2023-02-16T13:01:21.938Z,22.30
2023-02-16T13:03:57.496Z,24.25
2023-02-16T13:06:40.221Z,26.60
2023-02-16T13:09:46.648Z,23.35
2023-02-16T13:12:39.555Z,29.85
2023-02-16T13:15:43.591Z,25.25
2023-02-16T13:18:22.002Z,25.48
2023-02-16T13:20:59.117Z,23.92
2023-02-16T13:23:53.041Z,24.25
2023-02-16T13:26:22.469Z,21.67
2023-02-16T13:29:23.495Z,20.88
2023-02-16T13:35:01.345Z,21.88
2023-02-16T13:37:49.478Z,22.60
2023-02-16T13:40:41.533Z,22.27
2023-02-16T13:43:26.685Z,22.92
2023-02-16T13:45:54.564Z,19.80
2023-02-16T13:48:33.313Z,19.63
2023-02-16T13:51:11.946Z,16.52
2023-02-16T13:53:41.768Z,17.25
2023-02-16T13:56:12.978Z,19.65
2023-02-16T13:58:40.819Z,16.90
2023-02-16T14:01:32.190Z,18.50
2023-02-16T14:04:01.334Z,19.02
2023-02-16T14:06:29.462Z,18.20
2023-02-16T14:09:14.341Z,17.65
2023-02-16T14:11:53.178Z,19.30
2023-02-16T14:14:25.551Z,19.88
2023-02-16T14:16:52.073Z,15.07
2023-02-16T14:19:24.823Z,18.55
2023-02-16T14:21:51.774Z,21.50
2023-02-16T14:24:33.808Z,17.50
2023-02-16T14:27:01.623Z,17.85
2023-02-16T14:29:42.660Z,15.60
2023-02-16T14:32:29.601Z,15.35
2023-02-16T14:35:23.430Z,15.82
2023-02-16T14:38:03.566Z,23.38
2023-02-16T14:40:36.156Z,18.67
2023-02-16T14:43:40.543Z,15.05
2023-02-16T14:46:36.384Z,15.45
2023-02-16T14:49:33.943Z,15.02
2023-02-16T14:52:15.484Z,15.55
2023-02-16T14:55:15.858Z,14.13
2023-02-16T14:57:51.973Z,14.90
2023-02-16T15:00:29.089Z,16.00
2023-02-16T15:03:17.489Z,14.38
2023-02-16T15:05:52.305Z,13.57
2023-02-16T15:08:22.627Z,12.50
2023-02-16T15:10:54.166Z,12.93
2023-02-16T15:13:23.107Z,11.68
2023-02-16T15:15:55.998Z,11.00
2023-02-16T15:18:27.441Z,11.80
2023-02-16T15:20:57.346Z,13.68
2023-02-16T15:23:29.658Z,13.40
2023-02-16T15:26:02.353Z,10.45
2023-02-16T15:28:35.811Z,11.43
2023-02-16T15:31:23.834Z,12.20
2023-02-16T15:33:56.868Z,10.88
2023-02-16T15:36:31.392Z,11.70
2023-02-16T15:39:01.677Z,14.98
2023-02-16T15:41:41.276Z,12.82
2023-02-16T15:44:29.494Z,12.13
2023-02-16T15:47:22.345Z,9.93
2023-02-16T15:49:49.537Z,9.98
2023-02-16T15:52:21.568Z,10.43
2023-02-16T15:54:49.225Z,12.13
2023-02-16T15:57:23.955Z,11.00
2023-02-16T15:59:55.425Z,10.63
2023-02-16T16:02:38.428Z,13.25
2023-02-16T16:05:09.312Z,13.13
2023-02-16T16:07:39.980Z,12.90
2023-02-16T16:10:25.032Z,13.98
2023-02-16T16:12:54.459Z,12.18
2023-02-16T16:15:24.585Z,11.35
2023-02-16T16:17:53.752Z,12.13
2023-02-16T16:20:37.145Z,12.30
2023-02-16T16:23:05.497Z,12.93
2023-02-16T16:25:38.246Z,13.95
2023-02-16T16:28:08.182Z,11.47
2023-02-16T16:30:43.950Z,11.18
2023-02-16T16:33:13.957Z,16.90
2023-02-16T16:35:44.846Z,10.50
2023-02-16T16:38:25.327Z,11.80
2023-02-16T16:40:54.858Z,12.65
2023-02-16T16:43:28.036Z,13.70
2023-02-16T16:46:33.218Z,10.50
2023-02-16T16:49:04.308Z,12.30
2023-02-16T16:51:31.612Z,11.05
2023-02-16T16:54:00.706Z,12.27
2023-02-16T16:56:34.884Z,11.27
2023-02-16T16:59:01.711Z,11.38
2023-02-16T17:01:28.941Z,11.70
2023-02-16T17:03:55.741Z,13.88
2023-02-16T17:06:23.170Z,12.63
2023-02-16T17:08:50.048Z,16.17
2023-02-16T17:11:33.060Z,10.68
2023-02-16T17:14:14.210Z,11.90
2023-02-16T17:16:43.060Z,13.85
2023-02-16T17:19:17.561Z,12.98
2023-02-16T17:21:45.468Z,13.77
2023-02-16T17:24:12.010Z,11.07
2023-02-16T17:26:38.942Z,11.23
2023-02-16T17:29:06.858Z,14.40
2023-02-16T17:31:34.054Z,11.75
2023-02-16T17:34:00.870Z,13.73
2023-02-16T17:36:28.032Z,13.48
2023-02-16T17:38:54.853Z,11.80
2023-02-16T17:41:29.329Z,13.90
2023-02-16T17:43:55.898Z,13.32
2023-02-16T17:46:22.979Z,13.00
2023-02-16T17:48:53.289Z,11.75
2023-02-16T17:51:22.975Z,13.65
2023-02-16T17:53:49.626Z,11.23
2023-02-16T17:56:19.163Z,11.93
2023-02-16T17:58:46.173Z,12.60
2023-02-16T18:01:15.158Z,11.15
2023-02-16T18:03:41.862Z,10.35
2023-02-16T18:06:12.808Z,12.43
2023-02-16T18:08:39.485Z,10.50
2023-02-16T18:11:06.185Z,11.43
2023-02-16T18:13:32.810Z,13.27
2023-02-16T18:16:03.634Z,9.77
2023-02-16T18:18:30.689Z,10.93
2023-02-16T18:20:57.252Z,12.43
2023-02-16T18:23:23.832Z,10.88
2023-02-16T18:25:50.392Z,11.02
2023-02-16T18:28:27.871Z,13.23
2023-02-16T18:30:54.506Z,10.63
2023-02-16T18:33:22.122Z,11.15
2023-02-16T18:35:51.658Z,10.80
2023-02-16T18:38:20.049Z,10.77
2023-02-16T18:40:48.674Z,12.95
2023-02-16T18:43:15.468Z,13.30
2023-02-16T18:45:42.347Z,10.95
2023-02-16T18:48:08.989Z,12.73
2023-02-16T18:50:35.573Z,10.43
2023-02-16T18:53:02.102Z,10.27
2023-02-16T18:55:32.885Z,11.18
2023-02-16T18:58:00.764Z,10.48
2023-02-16T19:00:27.737Z,12.05
2023-02-16T19:02:55.346Z,13.32
2023-02-16T19:05:22.133Z,12.57
2023-02-16T19:07:48.938Z,11.77
2023-02-16T19:10:16.011Z,11.65
2023-02-16T19:12:42.517Z,10.23
2023-02-16T19:15:09.328Z,10.35
2023-02-16T19:17:36.237Z,11.15
2023-02-16T19:20:02.894Z,12.40
2023-02-16T19:22:29.473Z,10.98
2023-02-16T19:24:56.629Z,9.20
2023-02-16T19:27:23.191Z,10.98
2023-02-16T19:29:49.739Z,9.23
2023-02-16T19:32:19.203Z,11.13
2023-02-16T19:34:45.901Z,9.35
2023-02-16T19:37:12.442Z,9.48
2023-02-16T19:39:38.975Z,9.73
2023-02-16T19:42:05.614Z,8.70
2023-02-16T19:44:34.054Z,9.45
2023-02-16T19:47:00.615Z,8.23
2023-02-16T19:49:27.126Z,8.68
2023-02-16T19:51:54.844Z,10.05
2023-02-16T19:54:22.136Z,9.45
2023-02-16T19:56:48.760Z,8.20
2023-02-16T19:59:15.968Z,9.55
2023-02-16T20:01:42.561Z,9.30
2023-02-16T20:04:09.770Z,7.68
2023-02-16T20:06:39.171Z,6.82
2023-02-16T20:09:06.206Z,7.05
2023-02-16T20:11:32.876Z,7.60
2023-02-16T20:13:59.559Z,7.40
2023-02-16T20:16:27.064Z,6.70
2023-02-16T20:18:55.195Z,7.65
2023-02-16T20:21:27.263Z,6.70
2023-02-16T20:24:03.160Z,6.90
2023-02-16T20:26:35.734Z,6.57
2023-02-16T20:29:04.219Z,6.60
2023-02-16T20:31:37.676Z,6.22
2023-02-16T20:34:05.913Z,7.65
2023-02-16T20:36:32.563Z,6.95
2023-02-16T20:38:59.323Z,6.28
2023-02-16T20:41:25.847Z,7.05
2023-02-16T20:43:52.965Z,5.40
2023-02-16T20:46:19.591Z,6.85
2023-02-16T20:48:46.454Z,5.70
2023-02-16T20:51:14.163Z,5.93
2023-02-16T20:53:40.865Z,5.60
2023-02-16T20:56:14.718Z,5.65
2023-02-16T20:58:43.007Z,6.43
2023-02-16T21:01:20.903Z,6.60
2023-02-16T21:03:48.218Z,8.25
2023-02-16T21:06:15.238Z,8.20
2023-02-16T21:08:41.891Z,8.25
2023-02-16T21:11:08.461Z,8.32
2023-02-16T21:13:37.087Z,7.57
2023-02-16T21:16:04.390Z,9.93
2023-02-16T21:18:31.289Z,9.00
2023-02-16T21:21:00.179Z,10.55
2023-02-16T21:23:26.862Z,10.35
2023-02-16T21:26:01.321Z,7.85
2023-02-16T21:28:28.397Z,10.30
2023-02-16T21:30:55.785Z,8.88
2023-02-16T21:33:23.042Z,8.70
2023-02-16T21:35:49.569Z,9.40
2023-02-16T21:38:17.688Z,10.18
2023-02-16T21:41:03.088Z,10.10
2023-02-16T21:43:29.683Z,10.85
2023-02-16T21:46:02.497Z,8.13
2023-02-16T21:48:47.641Z,11.40
2023-02-16T21:51:17.656Z,10.18
2023-02-16T21:53:44.470Z,11.52
2023-02-16T21:56:24.395Z,10.07
2023-02-16T21:58:51.001Z,10.00
2023-02-16T22:01:23.783Z,10.27
2023-02-16T22:03:56.017Z,11.05
2023-02-16T22:06:24.741Z,10.52
2023-02-16T22:08:51.550Z,10.63
2023-02-16T22:11:18.143Z,10.85
2023-02-16T22:13:44.728Z,11.68
2023-02-16T22:16:17.405Z,11.23
2023-02-16T22:18:44.626Z,11.70
2023-02-16T22:21:11.291Z,11.27
2023-02-16T22:23:38.656Z,9.30
2023-02-16T22:26:08.463Z,11.00
2023-02-16T22:28:36.908Z,11.88
2023-02-16T22:31:08.541Z,11.15
2023-02-16T22:33:35.615Z,10.30
2023-02-16T22:36:12.728Z,10.88
2023-02-16T22:38:40.579Z,11.07
2023-02-16T22:41:08.248Z,11.85
2023-02-16T22:43:35.447Z,11.88
2023-02-16T22:46:07.554Z,11.25
2023-02-16T22:48:35.605Z,9.93
2023-02-16T22:51:04.296Z,11.23
2023-02-16T22:53:31.131Z,10.45
2023-02-16T22:55:57.697Z,11.63
2023-02-16T22:58:24.237Z,10.88
2023-02-16T23:00:51.052Z,10.52
2023-02-16T23:03:18.156Z,10.55
2023-02-16T23:05:45.343Z,9.85
2023-02-16T23:08:11.890Z,10.02
2023-02-16T23:10:39.862Z,10.50
2023-02-16T23:13:08.487Z,10.65
2023-02-16T23:15:35.959Z,10.70
2023-02-16T23:18:02.696Z,10.93
2023-02-16T23:20:29.365Z,10.85
2023-02-16T23:22:55.865Z,9.40
2023-02-16T23:25:34.633Z,9.65
2023-02-16T23:28:02.916Z,9.55
2023-02-16T23:30:30.603Z,9.77
2023-02-16T23:32:57.886Z,9.50
2023-02-16T23:35:24.382Z,10.57
2023-02-16T23:37:50.945Z,9.18
2023-02-16T23:40:17.479Z,10.35
2023-02-16T23:42:43.959Z,9.13
2023-02-16T23:45:10.446Z,10.10
2023-02-16T23:47:36.949Z,9.18
2023-02-16T23:50:03.551Z,9.32
2023-02-16T23:52:30.095Z,9.85
2023-02-16T23:54:56.585Z,9.02
2023-02-16T23:57:23.113Z,9.18
2023-02-16T23:59:49.624Z,9.40
